sensor_id;sensor_type;location;lat;lon;timestamp;P1;durP1;ratioP1;P2;durP2;ratioP2
39994;SDS011;25686;51.908;10.418;2023-03-14T00:02:05;2.50;;;1.40;;
39994;SDS011;25686;51.908;10.418;2023-03-14T00:04:06;4.28;;;1.60;;
39994;SDS011;25686;51.908;10.418;2023-03-14T00:06:07;4.30;;;1.48;;
39994;SDS011;25686;51.908;10.418;2023-03-14T00:08:09;2.40;;;1.17;;
39994;SDS011;25686;51.908;10.418;2023-03-14T00:10:11;3.45;;;1.35;;
39994;SDS011;25686;51.908;10.418;2023-03-14T00:12:13;3.10;;;1.30;;
39994;SDS011;25686;51.908;10.418;2023-03-14T00:14:14;2.63;;;1.25;;
39994;SDS011;25686;51.908;10.418;2023-03-14T00:16:17;3.90;;;1.20;;
39994;SDS011;25686;51.908;10.418;2023-03-14T00:18:18;3.03;;;1.25;;
39994;SDS011;25686;51.908;10.418;2023-03-14T00:20:19;5.05;;;1.30;;
39994;SDS011;25686;51.908;10.418;2023-03-14T00:22:20;3.83;;;1.50;;
39994;SDS011;25686;51.908;10.418;2023-03-14T00:24:21;4.03;;;1.30;;
39994;SDS011;25686;51.908;10.418;2023-03-14T00:26:23;2.78;;;1.00;;
39994;SDS011;25686;51.908;10.418;2023-03-14T00:28:24;5.45;;;1.38;;
39994;SDS011;25686;51.908;10.418;2023-03-14T00:30:25;2.78;;;1.13;;
39994;SDS011;25686;51.908;10.418;2023-03-14T00:32:26;4.10;;;1.10;;
39994;SDS011;25686;51.908;10.418;2023-03-14T00:34:30;4.10;;;1.17;;
39994;SDS011;25686;51.908;10.418;2023-03-14T00:36:31;1.73;;;1.15;;
39994;SDS011;25686;51.908;10.418;2023-03-14T00:38:33;1.98;;;1.15;;
39994;SDS011;25686;51.908;10.418;2023-03-14T00:40:34;2.80;;;1.15;;
39994;SDS011;25686;51.908;10.418;2023-03-14T00:42:34;2.50;;;1.08;;
39994;SDS011;25686;51.908;10.418;2023-03-14T00:44:35;2.05;;;0.85;;
39994;SDS011;25686;51.908;10.418;2023-03-14T00:46:36;1.30;;;1.00;;
39994;SDS011;25686;51.908;10.418;2023-03-14T00:48:38;5.05;;;1.00;;
39994;SDS011;25686;51.908;10.418;2023-03-14T00:50:39;3.70;;;1.00;;
39994;SDS011;25686;51.908;10.418;2023-03-14T00:52:40;2.42;;;1.00;;
39994;SDS011;25686;51.908;10.418;2023-03-14T00:54:40;3.05;;;1.02;;
39994;SDS011;25686;51.908;10.418;2023-03-14T00:56:41;1.65;;;0.93;;
39994;SDS011;25686;51.908;10.418;2023-03-14T00:58:42;3.67;;;1.02;;
39994;SDS011;25686;51.908;10.418;2023-03-14T01:00:43;4.80;;;0.90;;
39994;SDS011;25686;51.908;10.418;2023-03-14T01:02:45;2.90;;;1.10;;
39994;SDS011;25686;51.908;10.418;2023-03-14T01:04:47;5.95;;;1.10;;
39994;SDS011;25686;51.908;10.418;2023-03-14T01:06:48;6.05;;;0.70;;
39994;SDS011;25686;51.908;10.418;2023-03-14T01:08:49;2.05;;;1.10;;
39994;SDS011;25686;51.908;10.418;2023-03-14T01:10:50;1.65;;;0.75;;
39994;SDS011;25686;51.908;10.418;2023-03-14T01:12:51;1.80;;;0.90;;
39994;SDS011;25686;51.908;10.418;2023-03-14T01:14:52;0.98;;;0.80;;
39994;SDS011;25686;51.908;10.418;2023-03-14T01:16:53;1.83;;;0.90;;
39994;SDS011;25686;51.908;10.418;2023-03-14T01:19:00;1.33;;;0.88;;
39994;SDS011;25686;51.908;10.418;2023-03-14T01:21:03;1.65;;;0.80;;
39994;SDS011;25686;51.908;10.418;2023-03-14T01:23:04;3.28;;;1.10;;
39994;SDS011;25686;51.908;10.418;2023-03-14T01:25:06;1.48;;;0.73;;
39994;SDS011;25686;51.908;10.418;2023-03-14T01:27:07;0.52;;;0.52;;
39994;SDS011;25686;51.908;10.418;2023-03-14T01:29:08;3.38;;;0.88;;
39994;SDS011;25686;51.908;10.418;2023-03-14T01:31:09;2.35;;;0.70;;
39994;SDS011;25686;51.908;10.418;2023-03-14T01:33:10;1.95;;;1.02;;
39994;SDS011;25686;51.908;10.418;2023-03-14T01:35:13;1.92;;;0.95;;
39994;SDS011;25686;51.908;10.418;2023-03-14T01:37:14;3.63;;;1.00;;
39994;SDS011;25686;51.908;10.418;2023-03-14T01:39:15;2.83;;;1.10;;
39994;SDS011;25686;51.908;10.418;2023-03-14T01:41:17;3.22;;;1.00;;
39994;SDS011;25686;51.908;10.418;2023-03-14T01:43:19;3.20;;;1.00;;
39994;SDS011;25686;51.908;10.418;2023-03-14T01:47:40;1.38;;;0.90;;
39994;SDS011;25686;51.908;10.418;2023-03-14T01:49:41;3.00;;;0.73;;
39994;SDS011;25686;51.908;10.418;2023-03-14T01:51:44;2.83;;;0.70;;
39994;SDS011;25686;51.908;10.418;2023-03-14T01:53:47;2.63;;;1.17;;
39994;SDS011;25686;51.908;10.418;2023-03-14T01:55:49;3.47;;;1.10;;
39994;SDS011;25686;51.908;10.418;2023-03-14T01:57:54;3.33;;;1.02;;
39994;SDS011;25686;51.908;10.418;2023-03-14T01:59:57;3.25;;;1.00;;
39994;SDS011;25686;51.908;10.418;2023-03-14T02:01:59;3.63;;;0.80;;
39994;SDS011;25686;51.908;10.418;2023-03-14T02:04:01;2.47;;;1.10;;
39994;SDS011;25686;51.908;10.418;2023-03-14T02:06:04;3.95;;;0.90;;
39994;SDS011;25686;51.908;10.418;2023-03-14T02:08:08;2.17;;;0.95;;
39994;SDS011;25686;51.908;10.418;2023-03-14T02:10:10;0.98;;;0.77;;
39994;SDS011;25686;51.908;10.418;2023-03-14T02:12:12;4.32;;;1.00;;
39994;SDS011;25686;51.908;10.418;2023-03-14T02:14:23;3.90;;;1.08;;
39994;SDS011;25686;51.908;10.418;2023-03-14T02:16:25;2.63;;;0.90;;
39994;SDS011;25686;51.908;10.418;2023-03-14T02:18:26;2.83;;;1.10;;
39994;SDS011;25686;51.908;10.418;2023-03-14T02:22:31;2.67;;;1.00;;
39994;SDS011;25686;51.908;10.418;2023-03-14T02:24:34;2.55;;;0.80;;
39994;SDS011;25686;51.908;10.418;2023-03-14T02:26:38;2.72;;;0.98;;
39994;SDS011;25686;51.908;10.418;2023-03-14T02:28:41;2.08;;;0.90;;
39994;SDS011;25686;51.908;10.418;2023-03-14T02:30:42;4.40;;;1.15;;
39994;SDS011;25686;51.908;10.418;2023-03-14T02:32:44;3.05;;;1.05;;
39994;SDS011;25686;51.908;10.418;2023-03-14T02:34:48;2.13;;;0.80;;
39994;SDS011;25686;51.908;10.418;2023-03-14T02:36:50;6.22;;;0.90;;
39994;SDS011;25686;51.908;10.418;2023-03-14T02:40:52;4.20;;;1.05;;
39994;SDS011;25686;51.908;10.418;2023-03-14T02:42:53;4.90;;;0.90;;
39994;SDS011;25686;51.908;10.418;2023-03-14T02:45:40;3.38;;;1.00;;
39994;SDS011;25686;51.908;10.418;2023-03-14T02:47:15;3.70;;;1.00;;
39994;SDS011;25686;51.908;10.418;2023-03-14T02:49:16;5.38;;;1.00;;
39994;SDS011;25686;51.908;10.418;2023-03-14T02:51:17;3.05;;;1.00;;
39994;SDS011;25686;51.908;10.418;2023-03-14T02:53:19;4.03;;;1.17;;
39994;SDS011;25686;51.908;10.418;2023-03-14T02:55:22;2.78;;;1.27;;
39994;SDS011;25686;51.908;10.418;2023-03-14T02:57:23;3.42;;;1.08;;
39994;SDS011;25686;51.908;10.418;2023-03-14T02:59:24;2.47;;;0.93;;
39994;SDS011;25686;51.908;10.418;2023-03-14T03:01:25;3.60;;;1.00;;
39994;SDS011;25686;51.908;10.418;2023-03-14T03:03:26;1.23;;;0.93;;
39994;SDS011;25686;51.908;10.418;2023-03-14T03:05:27;3.75;;;1.10;;
39994;SDS011;25686;51.908;10.418;2023-03-14T03:07:28;2.30;;;1.15;;
39994;SDS011;25686;51.908;10.418;2023-03-14T03:09:29;3.33;;;1.10;;
39994;SDS011;25686;51.908;10.418;2023-03-14T03:11:29;4.32;;;0.95;;
39994;SDS011;25686;51.908;10.418;2023-03-14T03:13:31;1.77;;;1.05;;
39994;SDS011;25686;51.908;10.418;2023-03-14T03:15:32;3.75;;;1.38;;
39994;SDS011;25686;51.908;10.418;2023-03-14T03:17:33;3.85;;;1.00;;
39994;SDS011;25686;51.908;10.418;2023-03-14T03:19:35;3.58;;;1.40;;
39994;SDS011;25686;51.908;10.418;2023-03-14T03:21:36;2.45;;;1.00;;
39994;SDS011;25686;51.908;10.418;2023-03-14T03:23:37;4.55;;;1.25;;
39994;SDS011;25686;51.908;10.418;2023-03-14T03:25:38;2.58;;;1.15;;
39994;SDS011;25686;51.908;10.418;2023-03-14T03:27:38;4.35;;;1.25;;
39994;SDS011;25686;51.908;10.418;2023-03-14T03:29:39;2.35;;;1.30;;
39994;SDS011;25686;51.908;10.418;2023-03-14T03:31:40;6.18;;;1.25;;
39994;SDS011;25686;51.908;10.418;2023-03-14T03:33:41;3.00;;;1.40;;
39994;SDS011;25686;51.908;10.418;2023-03-14T03:35:43;4.05;;;1.50;;
39994;SDS011;25686;51.908;10.418;2023-03-14T03:37:44;3.55;;;1.20;;
39994;SDS011;25686;51.908;10.418;2023-03-14T03:39:45;3.80;;;1.42;;
39994;SDS011;25686;51.908;10.418;2023-03-14T03:41:46;4.82;;;1.50;;
39994;SDS011;25686;51.908;10.418;2023-03-14T03:43:47;6.05;;;1.40;;
39994;SDS011;25686;51.908;10.418;2023-03-14T03:45:48;5.32;;;1.60;;
39994;SDS011;25686;51.908;10.418;2023-03-14T03:47:49;3.97;;;1.50;;
39994;SDS011;25686;51.908;10.418;2023-03-14T03:49:50;4.22;;;1.52;;
39994;SDS011;25686;51.908;10.418;2023-03-14T03:51:51;4.13;;;1.50;;
39994;SDS011;25686;51.908;10.418;2023-03-14T03:53:52;4.20;;;1.52;;
39994;SDS011;25686;51.908;10.418;2023-03-14T03:55:53;6.03;;;1.70;;
39994;SDS011;25686;51.908;10.418;2023-03-14T03:57:54;4.65;;;1.33;;
39994;SDS011;25686;51.908;10.418;2023-03-14T03:59:55;5.38;;;1.63;;
39994;SDS011;25686;51.908;10.418;2023-03-14T04:01:55;6.78;;;1.48;;
39994;SDS011;25686;51.908;10.418;2023-03-14T04:03:56;4.07;;;1.52;;
39994;SDS011;25686;51.908;10.418;2023-03-14T04:06:05;3.70;;;1.50;;
39994;SDS011;25686;51.908;10.418;2023-03-14T04:08:06;6.63;;;1.50;;
39994;SDS011;25686;51.908;10.418;2023-03-14T04:10:07;5.65;;;1.27;;
39994;SDS011;25686;51.908;10.418;2023-03-14T04:12:08;2.92;;;1.30;;
39994;SDS011;25686;51.908;10.418;2023-03-14T04:14:10;7.00;;;1.60;;
39994;SDS011;25686;51.908;10.418;2023-03-14T04:16:16;4.43;;;1.13;;
39994;SDS011;25686;51.908;10.418;2023-03-14T04:18:17;5.78;;;1.35;;
39994;SDS011;25686;51.908;10.418;2023-03-14T04:20:18;3.55;;;1.17;;
39994;SDS011;25686;51.908;10.418;2023-03-14T04:22:19;2.50;;;1.05;;
39994;SDS011;25686;51.908;10.418;2023-03-14T04:24:20;5.38;;;1.33;;
39994;SDS011;25686;51.908;10.418;2023-03-14T04:26:21;3.53;;;1.15;;
39994;SDS011;25686;51.908;10.418;2023-03-14T04:28:22;3.97;;;1.25;;
39994;SDS011;25686;51.908;10.418;2023-03-14T04:30:23;3.88;;;1.50;;
39994;SDS011;25686;51.908;10.418;2023-03-14T04:32:24;6.60;;;1.50;;
39994;SDS011;25686;51.908;10.418;2023-03-14T04:34:25;3.67;;;1.20;;
39994;SDS011;25686;51.908;10.418;2023-03-14T04:36:26;4.90;;;1.17;;
39994;SDS011;25686;51.908;10.418;2023-03-14T04:38:27;3.75;;;1.42;;
39994;SDS011;25686;51.908;10.418;2023-03-14T04:40:28;6.85;;;1.60;;
39994;SDS011;25686;51.908;10.418;2023-03-14T04:42:28;3.63;;;1.30;;
39994;SDS011;25686;51.908;10.418;2023-03-14T04:44:29;2.33;;;0.98;;
39994;SDS011;25686;51.908;10.418;2023-03-14T04:46:30;4.03;;;1.50;;
39994;SDS011;25686;51.908;10.418;2023-03-14T04:48:31;6.13;;;1.45;;
39994;SDS011;25686;51.908;10.418;2023-03-14T04:50:32;6.75;;;1.67;;
39994;SDS011;25686;51.908;10.418;2023-03-14T04:52:33;3.25;;;1.27;;
39994;SDS011;25686;51.908;10.418;2023-03-14T04:54:34;6.38;;;1.38;;
39994;SDS011;25686;51.908;10.418;2023-03-14T04:56:35;5.53;;;1.40;;
39994;SDS011;25686;51.908;10.418;2023-03-14T04:58:36;7.03;;;1.60;;
39994;SDS011;25686;51.908;10.418;2023-03-14T05:00:37;3.47;;;1.27;;
39994;SDS011;25686;51.908;10.418;2023-03-14T05:02:38;6.45;;;1.38;;
39994;SDS011;25686;51.908;10.418;2023-03-14T05:04:39;3.88;;;1.35;;
39994;SDS011;25686;51.908;10.418;2023-03-14T05:06:40;3.47;;;1.10;;
39994;SDS011;25686;51.908;10.418;2023-03-14T05:08:42;6.78;;;1.25;;
39994;SDS011;25686;51.908;10.418;2023-03-14T05:10:43;4.63;;;1.30;;
39994;SDS011;25686;51.908;10.418;2023-03-14T05:12:44;5.38;;;1.17;;
39994;SDS011;25686;51.908;10.418;2023-03-14T05:14:45;5.10;;;1.25;;
39994;SDS011;25686;51.908;10.418;2023-03-14T05:16:45;2.42;;;1.00;;
39994;SDS011;25686;51.908;10.418;2023-03-14T05:18:46;2.47;;;1.00;;
39994;SDS011;25686;51.908;10.418;2023-03-14T05:20:50;2.20;;;1.10;;
39994;SDS011;25686;51.908;10.418;2023-03-14T05:22:51;2.63;;;0.95;;
39994;SDS011;25686;51.908;10.418;2023-03-14T05:24:52;2.25;;;1.10;;
39994;SDS011;25686;51.908;10.418;2023-03-14T05:26:56;4.97;;;1.23;;
39994;SDS011;25686;51.908;10.418;2023-03-14T05:28:57;7.25;;;1.23;;
39994;SDS011;25686;51.908;10.418;2023-03-14T05:30:58;4.47;;;1.23;;
39994;SDS011;25686;51.908;10.418;2023-03-14T05:32:59;4.35;;;1.40;;
39994;SDS011;25686;51.908;10.418;2023-03-14T05:35:00;6.15;;;1.58;;
39994;SDS011;25686;51.908;10.418;2023-03-14T05:37:01;4.50;;;1.40;;
39994;SDS011;25686;51.908;10.418;2023-03-14T05:39:02;7.28;;;1.70;;
39994;SDS011;25686;51.908;10.418;2023-03-14T05:41:03;6.90;;;1.17;;
39994;SDS011;25686;51.908;10.418;2023-03-14T05:43:04;4.00;;;0.68;;
39994;SDS011;25686;51.908;10.418;2023-03-14T05:45:07;3.95;;;0.50;;
39994;SDS011;25686;51.908;10.418;2023-03-14T05:47:08;3.45;;;0.93;;
39994;SDS011;25686;51.908;10.418;2023-03-14T05:49:09;0.90;;;0.40;;
39994;SDS011;25686;51.908;10.418;2023-03-14T05:51:10;1.48;;;0.30;;
39994;SDS011;25686;51.908;10.418;2023-03-14T05:53:11;1.83;;;0.38;;
39994;SDS011;25686;51.908;10.418;2023-03-14T05:55:12;1.65;;;0.40;;
39994;SDS011;25686;51.908;10.418;2023-03-14T05:57:13;1.15;;;0.30;;
39994;SDS011;25686;51.908;10.418;2023-03-14T05:59:14;1.63;;;0.50;;
39994;SDS011;25686;51.908;10.418;2023-03-14T06:01:15;2.60;;;0.60;;
39994;SDS011;25686;51.908;10.418;2023-03-14T06:03:16;2.17;;;0.88;;
39994;SDS011;25686;51.908;10.418;2023-03-14T06:05:17;1.90;;;0.60;;
39994;SDS011;25686;51.908;10.418;2023-03-14T06:07:18;1.77;;;0.32;;
39994;SDS011;25686;51.908;10.418;2023-03-14T06:09:19;3.08;;;0.50;;
39994;SDS011;25686;51.908;10.418;2023-03-14T06:11:22;1.17;;;0.43;;
39994;SDS011;25686;51.908;10.418;2023-03-14T06:13:26;2.58;;;0.50;;
39994;SDS011;25686;51.908;10.418;2023-03-14T06:15:27;2.83;;;0.57;;
39994;SDS011;25686;51.908;10.418;2023-03-14T06:17:28;3.22;;;0.55;;
39994;SDS011;25686;51.908;10.418;2023-03-14T06:19:29;3.45;;;0.43;;
39994;SDS011;25686;51.908;10.418;2023-03-14T06:21:30;2.65;;;0.65;;
39994;SDS011;25686;51.908;10.418;2023-03-14T06:23:30;4.57;;;0.70;;
39994;SDS011;25686;51.908;10.418;2023-03-14T06:25:32;1.80;;;0.43;;
39994;SDS011;25686;51.908;10.418;2023-03-14T06:27:33;1.02;;;0.40;;
39994;SDS011;25686;51.908;10.418;2023-03-14T06:29:34;1.67;;;0.55;;
39994;SDS011;25686;51.908;10.418;2023-03-14T06:31:35;1.42;;;0.65;;
39994;SDS011;25686;51.908;10.418;2023-03-14T06:33:36;0.93;;;0.50;;
39994;SDS011;25686;51.908;10.418;2023-03-14T06:35:37;2.55;;;0.90;;
39994;SDS011;25686;51.908;10.418;2023-03-14T06:37:38;4.05;;;0.93;;
39994;SDS011;25686;51.908;10.418;2023-03-14T06:39:39;3.67;;;0.70;;
39994;SDS011;25686;51.908;10.418;2023-03-14T06:41:40;2.55;;;1.02;;
39994;SDS011;25686;51.908;10.418;2023-03-14T06:43:41;5.50;;;0.82;;
39994;SDS011;25686;51.908;10.418;2023-03-14T06:45:41;2.65;;;0.80;;
39994;SDS011;25686;51.908;10.418;2023-03-14T06:47:42;3.70;;;1.10;;
39994;SDS011;25686;51.908;10.418;2023-03-14T06:49:43;5.30;;;1.17;;
39994;SDS011;25686;51.908;10.418;2023-03-14T06:51:44;5.40;;;1.58;;
39994;SDS011;25686;51.908;10.418;2023-03-14T06:53:45;3.35;;;0.90;;
39994;SDS011;25686;51.908;10.418;2023-03-14T06:55:46;3.50;;;0.90;;
39994;SDS011;25686;51.908;10.418;2023-03-14T06:57:47;4.57;;;1.10;;
39994;SDS011;25686;51.908;10.418;2023-03-14T06:59:48;3.78;;;1.10;;
39994;SDS011;25686;51.908;10.418;2023-03-14T07:01:49;5.22;;;1.20;;
39994;SDS011;25686;51.908;10.418;2023-03-14T07:03:50;2.45;;;0.93;;
39994;SDS011;25686;51.908;10.418;2023-03-14T07:05:52;6.93;;;1.27;;
39994;SDS011;25686;51.908;10.418;2023-03-14T07:07:53;5.25;;;1.23;;
39994;SDS011;25686;51.908;10.418;2023-03-14T07:09:54;4.05;;;1.20;;
39994;SDS011;25686;51.908;10.418;2023-03-14T07:11:54;7.10;;;1.45;;
39994;SDS011;25686;51.908;10.418;2023-03-14T07:13:55;7.75;;;1.25;;
39994;SDS011;25686;51.908;10.418;2023-03-14T07:15:56;5.72;;;1.27;;
39994;SDS011;25686;51.908;10.418;2023-03-14T07:17:57;5.93;;;1.23;;
39994;SDS011;25686;51.908;10.418;2023-03-14T07:19:58;7.20;;;1.23;;
39994;SDS011;25686;51.908;10.418;2023-03-14T07:22:00;4.00;;;1.00;;
39994;SDS011;25686;51.908;10.418;2023-03-14T07:24:01;3.83;;;1.23;;
39994;SDS011;25686;51.908;10.418;2023-03-14T07:26:01;3.00;;;0.80;;
39994;SDS011;25686;51.908;10.418;2023-03-14T07:28:02;3.35;;;1.00;;
39994;SDS011;25686;51.908;10.418;2023-03-14T07:30:03;5.15;;;0.88;;
39994;SDS011;25686;51.908;10.418;2023-03-14T07:32:05;5.22;;;1.02;;
39994;SDS011;25686;51.908;10.418;2023-03-14T07:34:07;3.60;;;0.93;;
39994;SDS011;25686;51.908;10.418;2023-03-14T07:36:10;3.53;;;0.90;;
39994;SDS011;25686;51.908;10.418;2023-03-14T07:38:11;4.35;;;1.05;;
39994;SDS011;25686;51.908;10.418;2023-03-14T07:40:12;3.63;;;0.80;;
39994;SDS011;25686;51.908;10.418;2023-03-14T07:42:15;3.17;;;0.82;;
39994;SDS011;25686;51.908;10.418;2023-03-14T07:44:16;1.58;;;0.57;;
39994;SDS011;25686;51.908;10.418;2023-03-14T07:46:16;2.15;;;0.57;;
39994;SDS011;25686;51.908;10.418;2023-03-14T07:48:18;3.03;;;0.95;;
39994;SDS011;25686;51.908;10.418;2023-03-14T07:50:19;4.57;;;1.05;;
39994;SDS011;25686;51.908;10.418;2023-03-14T07:52:20;2.75;;;0.82;;
39994;SDS011;25686;51.908;10.418;2023-03-14T07:54:21;2.45;;;0.70;;
39994;SDS011;25686;51.908;10.418;2023-03-14T07:56:22;2.25;;;0.70;;
39994;SDS011;25686;51.908;10.418;2023-03-14T07:58:23;1.75;;;0.50;;
39994;SDS011;25686;51.908;10.418;2023-03-14T08:00:24;3.10;;;0.60;;
39994;SDS011;25686;51.908;10.418;2023-03-14T08:02:25;2.22;;;0.60;;
39994;SDS011;25686;51.908;10.418;2023-03-14T08:04:26;3.53;;;0.60;;
39994;SDS011;25686;51.908;10.418;2023-03-14T08:06:27;2.95;;;0.52;;
39994;SDS011;25686;51.908;10.418;2023-03-14T08:08:28;2.13;;;0.50;;
39994;SDS011;25686;51.908;10.418;2023-03-14T08:10:29;2.53;;;0.60;;
39994;SDS011;25686;51.908;10.418;2023-03-14T08:12:30;2.15;;;0.50;;
39994;SDS011;25686;51.908;10.418;2023-03-14T08:14:31;2.20;;;0.63;;
39994;SDS011;25686;51.908;10.418;2023-03-14T08:16:32;2.42;;;0.70;;
39994;SDS011;25686;51.908;10.418;2023-03-14T08:18:33;1.13;;;0.43;;
39994;SDS011;25686;51.908;10.418;2023-03-14T08:20:35;1.35;;;0.55;;
39994;SDS011;25686;51.908;10.418;2023-03-14T08:22:36;2.15;;;0.52;;
39994;SDS011;25686;51.908;10.418;2023-03-14T08:24:37;1.75;;;0.60;;
39994;SDS011;25686;51.908;10.418;2023-03-14T08:26:38;3.33;;;0.80;;
39994;SDS011;25686;51.908;10.418;2023-03-14T08:28:39;2.20;;;0.93;;
39994;SDS011;25686;51.908;10.418;2023-03-14T08:30:40;3.40;;;0.95;;
39994;SDS011;25686;51.908;10.418;2023-03-14T08:32:41;2.65;;;0.65;;
39994;SDS011;25686;51.908;10.418;2023-03-14T08:34:42;1.13;;;0.60;;
39994;SDS011;25686;51.908;10.418;2023-03-14T08:36:43;4.25;;;0.80;;
39994;SDS011;25686;51.908;10.418;2023-03-14T08:38:44;0.93;;;0.60;;
39994;SDS011;25686;51.908;10.418;2023-03-14T08:40:45;5.43;;;0.70;;
39994;SDS011;25686;51.908;10.418;2023-03-14T08:42:45;3.10;;;0.70;;
39994;SDS011;25686;51.908;10.418;2023-03-14T08:44:46;1.60;;;0.60;;
39994;SDS011;25686;51.908;10.418;2023-03-14T08:46:47;1.10;;;0.52;;
39994;SDS011;25686;51.908;10.418;2023-03-14T08:48:48;3.25;;;0.70;;
39994;SDS011;25686;51.908;10.418;2023-03-14T08:50:49;2.28;;;0.60;;
39994;SDS011;25686;51.908;10.418;2023-03-14T08:52:50;2.47;;;0.88;;
39994;SDS011;25686;51.908;10.418;2023-03-14T08:54:51;2.90;;;0.60;;
39994;SDS011;25686;51.908;10.418;2023-03-14T08:56:52;1.30;;;0.52;;
39994;SDS011;25686;51.908;10.418;2023-03-14T08:58:53;3.55;;;0.60;;
39994;SDS011;25686;51.908;10.418;2023-03-14T09:00:54;2.08;;;0.55;;
39994;SDS011;25686;51.908;10.418;2023-03-14T09:02:55;1.10;;;0.63;;
39994;SDS011;25686;51.908;10.418;2023-03-14T09:04:56;2.22;;;0.65;;
39994;SDS011;25686;51.908;10.418;2023-03-14T09:06:56;4.90;;;0.50;;
39994;SDS011;25686;51.908;10.418;2023-03-14T09:09:01;1.48;;;0.60;;
39994;SDS011;25686;51.908;10.418;2023-03-14T09:11:02;2.08;;;0.70;;
39994;SDS011;25686;51.908;10.418;2023-03-14T09:13:03;1.55;;;0.45;;
39994;SDS011;25686;51.908;10.418;2023-03-14T09:15:04;8.02;;;0.60;;
39994;SDS011;25686;51.908;10.418;2023-03-14T09:17:05;0.68;;;0.40;;
39994;SDS011;25686;51.908;10.418;2023-03-14T09:19:06;0.88;;;0.57;;
39994;SDS011;25686;51.908;10.418;2023-03-14T09:21:07;2.47;;;0.50;;
39994;SDS011;25686;51.908;10.418;2023-03-14T09:23:08;2.65;;;0.47;;
39994;SDS011;25686;51.908;10.418;2023-03-14T09:25:09;1.27;;;0.47;;
39994;SDS011;25686;51.908;10.418;2023-03-14T09:27:10;2.15;;;0.65;;
39994;SDS011;25686;51.908;10.418;2023-03-14T09:29:11;1.90;;;0.50;;
39994;SDS011;25686;51.908;10.418;2023-03-14T09:31:12;2.30;;;0.65;;
39994;SDS011;25686;51.908;10.418;2023-03-14T09:33:13;0.90;;;0.50;;
39994;SDS011;25686;51.908;10.418;2023-03-14T09:35:14;2.10;;;0.40;;
39994;SDS011;25686;51.908;10.418;2023-03-14T09:37:15;2.03;;;0.40;;
39994;SDS011;25686;51.908;10.418;2023-03-14T09:39:16;0.65;;;0.40;;
39994;SDS011;25686;51.908;10.418;2023-03-14T09:41:22;0.80;;;0.40;;
39994;SDS011;25686;51.908;10.418;2023-03-14T09:43:24;0.93;;;0.32;;
39994;SDS011;25686;51.908;10.418;2023-03-14T09:45:28;2.05;;;0.50;;
39994;SDS011;25686;51.908;10.418;2023-03-14T09:47:29;1.75;;;0.52;;
39994;SDS011;25686;51.908;10.418;2023-03-14T09:49:32;0.40;;;0.40;;
39994;SDS011;25686;51.908;10.418;2023-03-14T09:51:33;1.88;;;0.55;;
39994;SDS011;25686;51.908;10.418;2023-03-14T09:53:37;0.82;;;0.50;;
39994;SDS011;25686;51.908;10.418;2023-03-14T09:55:38;1.10;;;0.43;;
39994;SDS011;25686;51.908;10.418;2023-03-14T09:57:39;1.75;;;0.55;;
39994;SDS011;25686;51.908;10.418;2023-03-14T09:59:42;0.65;;;0.30;;
39994;SDS011;25686;51.908;10.418;2023-03-14T10:01:43;0.40;;;0.30;;
39994;SDS011;25686;51.908;10.418;2023-03-14T10:03:44;2.35;;;0.30;;
39994;SDS011;25686;51.908;10.418;2023-03-14T10:05:46;0.75;;;0.30;;
39994;SDS011;25686;51.908;10.418;2023-03-14T10:07:47;0.80;;;0.40;;
39994;SDS011;25686;51.908;10.418;2023-03-14T10:09:49;0.40;;;0.40;;
39994;SDS011;25686;51.908;10.418;2023-03-14T10:11:57;0.57;;;0.35;;
39994;SDS011;25686;51.908;10.418;2023-03-14T10:14:08;1.05;;;0.50;;
39994;SDS011;25686;51.908;10.418;2023-03-14T10:16:09;0.52;;;0.20;;
39994;SDS011;25686;51.908;10.418;2023-03-14T10:18:11;1.10;;;0.40;;
39994;SDS011;25686;51.908;10.418;2023-03-14T10:20:26;1.08;;;0.57;;
39994;SDS011;25686;51.908;10.418;2023-03-14T10:22:32;1.52;;;0.57;;
39994;SDS011;25686;51.908;10.418;2023-03-14T10:24:34;0.40;;;0.30;;
39994;SDS011;25686;51.908;10.418;2023-03-14T10:26:35;0.22;;;0.22;;
39994;SDS011;25686;51.908;10.418;2023-03-14T10:28:38;0.30;;;0.30;;
39994;SDS011;25686;51.908;10.418;2023-03-14T10:30:41;1.65;;;0.30;;
39994;SDS011;25686;51.908;10.418;2023-03-14T10:32:44;0.85;;;0.40;;
39994;SDS011;25686;51.908;10.418;2023-03-14T10:34:46;1.85;;;0.40;;
39994;SDS011;25686;51.908;10.418;2023-03-14T10:37:08;0.65;;;0.20;;
39994;SDS011;25686;51.908;10.418;2023-03-14T10:41:26;0.40;;;0.32;;
39994;SDS011;25686;51.908;10.418;2023-03-14T10:43:31;0.60;;;0.30;;
39994;SDS011;25686;51.908;10.418;2023-03-14T10:45:33;1.10;;;0.40;;
39994;SDS011;25686;51.908;10.418;2023-03-14T10:47:34;1.25;;;0.40;;
39994;SDS011;25686;51.908;10.418;2023-03-14T10:49:36;0.85;;;0.43;;
39994;SDS011;25686;51.908;10.418;2023-03-14T10:51:37;0.90;;;0.30;;
39994;SDS011;25686;51.908;10.418;2023-03-14T10:53:43;2.35;;;0.30;;
39994;SDS011;25686;51.908;10.418;2023-03-14T10:55:44;0.47;;;0.20;;
39994;SDS011;25686;51.908;10.418;2023-03-14T10:57:45;0.85;;;0.40;;
39994;SDS011;25686;51.908;10.418;2023-03-14T10:59:46;0.77;;;0.40;;
39994;SDS011;25686;51.908;10.418;2023-03-14T11:01:50;0.75;;;0.50;;
39994;SDS011;25686;51.908;10.418;2023-03-14T11:04:43;0.85;;;0.25;;
39994;SDS011;25686;51.908;10.418;2023-03-14T11:06:18;2.03;;;0.20;;
39994;SDS011;25686;51.908;10.418;2023-03-14T11:08:26;0.52;;;0.17;;
39994;SDS011;25686;51.908;10.418;2023-03-14T11:10:40;0.88;;;0.30;;
39994;SDS011;25686;51.908;10.418;2023-03-14T11:12:47;0.95;;;0.30;;
39994;SDS011;25686;51.908;10.418;2023-03-14T11:14:52;0.75;;;0.38;;
39994;SDS011;25686;51.908;10.418;2023-03-14T11:20:59;0.65;;;0.30;;
39994;SDS011;25686;51.908;10.418;2023-03-14T11:27:30;1.30;;;0.25;;
39994;SDS011;25686;51.908;10.418;2023-03-14T11:29:39;0.20;;;0.10;;
39994;SDS011;25686;51.908;10.418;2023-03-14T11:31:40;0.38;;;0.25;;
39994;SDS011;25686;51.908;10.418;2023-03-14T11:33:49;2.30;;;0.30;;
39994;SDS011;25686;51.908;10.418;2023-03-14T11:40:23;1.85;;;0.40;;
39994;SDS011;25686;51.908;10.418;2023-03-14T11:42:26;0.65;;;0.30;;
39994;SDS011;25686;51.908;10.418;2023-03-14T11:44:30;1.00;;;0.32;;
39994;SDS011;25686;51.908;10.418;2023-03-14T11:46:33;1.52;;;0.40;;
39994;SDS011;25686;51.908;10.418;2023-03-14T11:48:37;0.20;;;0.20;;
39994;SDS011;25686;51.908;10.418;2023-03-14T11:50:39;1.20;;;0.30;;
39994;SDS011;25686;51.908;10.418;2023-03-14T11:52:44;0.80;;;0.32;;
39994;SDS011;25686;51.908;10.418;2023-03-14T11:54:52;0.20;;;0.20;;
39994;SDS011;25686;51.908;10.418;2023-03-14T11:56:55;0.82;;;0.30;;
39994;SDS011;25686;51.908;10.418;2023-03-14T11:58:59;1.42;;;0.30;;
39994;SDS011;25686;51.908;10.418;2023-03-14T12:01:02;1.13;;;0.45;;
39994;SDS011;25686;51.908;10.418;2023-03-14T12:07:19;0.82;;;0.30;;
39994;SDS011;25686;51.908;10.418;2023-03-14T12:09:21;0.60;;;0.30;;
39994;SDS011;25686;51.908;10.418;2023-03-14T12:11:30;0.20;;;0.20;;
39994;SDS011;25686;51.908;10.418;2023-03-14T12:13:32;1.00;;;0.40;;
39994;SDS011;25686;51.908;10.418;2023-03-14T12:15:34;0.20;;;0.10;;
39994;SDS011;25686;51.908;10.418;2023-03-14T12:17:38;0.30;;;0.13;;
39994;SDS011;25686;51.908;10.418;2023-03-14T12:19:40;0.52;;;0.20;;
39994;SDS011;25686;51.908;10.418;2023-03-14T12:24:01;1.88;;;0.38;;
39994;SDS011;25686;51.908;10.418;2023-03-14T12:26:12;0.73;;;0.25;;
39994;SDS011;25686;51.908;10.418;2023-03-14T12:28:21;1.13;;;0.25;;
39994;SDS011;25686;51.908;10.418;2023-03-14T12:32:27;0.60;;;0.30;;
39994;SDS011;25686;51.908;10.418;2023-03-14T12:34:34;0.55;;;0.40;;